sensor_id;sensor_type;location;lat;lon;timestamp;P1;durP1;ratioP1;P2;durP2;ratioP2
37341;SDS011;58643;49.052;8.518;2022-08-23T00:01:15;5.88;;;2.80;;
37341;SDS011;58643;49.052;8.518;2022-08-23T00:03:42;5.63;;;3.20;;
37341;SDS011;58643;49.052;8.518;2022-08-23T00:06:09;6.22;;;2.95;;
37341;SDS011;58643;49.052;8.518;2022-08-23T00:08:35;5.22;;;2.67;;
37341;SDS011;58643;49.052;8.518;2022-08-23T00:11:01;5.80;;;3.15;;
37341;SDS011;58643;49.052;8.518;2022-08-23T00:13:28;7.93;;;3.10;;
37341;SDS011;58643;49.052;8.518;2022-08-23T00:15:53;7.38;;;2.83;;
37341;SDS011;58643;49.052;8.518;2022-08-23T00:18:19;6.03;;;2.97;;
37341;SDS011;58643;49.052;8.518;2022-08-23T00:20:46;5.88;;;3.05;;
37341;SDS011;58643;49.052;8.518;2022-08-23T00:23:12;4.53;;;2.90;;
37341;SDS011;58643;49.052;8.518;2022-08-23T00:25:38;5.97;;;3.28;;
37341;SDS011;58643;49.052;8.518;2022-08-23T00:28:04;5.43;;;3.20;;
37341;SDS011;58643;49.052;8.518;2022-08-23T00:30:29;5.80;;;3.30;;
37341;SDS011;58643;49.052;8.518;2022-08-23T00:32:56;6.38;;;2.90;;
37341;SDS011;58643;49.052;8.518;2022-08-23T00:35:22;7.75;;;3.10;;
37341;SDS011;58643;49.052;8.518;2022-08-23T00:37:47;6.40;;;2.95;;
37341;SDS011;58643;49.052;8.518;2022-08-23T00:40:14;5.95;;;2.97;;
37341;SDS011;58643;49.052;8.518;2022-08-23T00:45:54;5.30;;;2.88;;
37341;SDS011;58643;49.052;8.518;2022-08-23T00:48:44;4.28;;;2.58;;
37341;SDS011;58643;49.052;8.518;2022-08-23T00:51:22;6.70;;;3.08;;
37341;SDS011;58643;49.052;8.518;2022-08-23T00:54:03;3.92;;;3.08;;
37341;SDS011;58643;49.052;8.518;2022-08-23T00:56:30;10.32;;;3.40;;
37341;SDS011;58643;49.052;8.518;2022-08-23T00:58:58;6.27;;;3.50;;
37341;SDS011;58643;49.052;8.518;2022-08-23T01:01:24;5.75;;;3.63;;
37341;SDS011;58643;49.052;8.518;2022-08-23T01:03:52;5.35;;;3.25;;
37341;SDS011;58643;49.052;8.518;2022-08-23T01:08:47;4.72;;;3.03;;
37341;SDS011;58643;49.052;8.518;2022-08-23T01:11:22;5.57;;;3.50;;
37341;SDS011;58643;49.052;8.518;2022-08-23T01:13:59;4.55;;;2.88;;
37341;SDS011;58643;49.052;8.518;2022-08-23T01:16:31;4.65;;;3.10;;
37341;SDS011;58643;49.052;8.518;2022-08-23T01:19:00;4.03;;;2.85;;
37341;SDS011;58643;49.052;8.518;2022-08-23T01:21:36;10.38;;;3.47;;
37341;SDS011;58643;49.052;8.518;2022-08-23T01:24:09;6.88;;;3.28;;
37341;SDS011;58643;49.052;8.518;2022-08-23T01:26:36;7.28;;;2.72;;
37341;SDS011;58643;49.052;8.518;2022-08-23T01:29:03;6.15;;;3.08;;
37341;SDS011;58643;49.052;8.518;2022-08-23T01:31:30;9.05;;;3.60;;
37341;SDS011;58643;49.052;8.518;2022-08-23T01:33:59;8.32;;;3.03;;
37341;SDS011;58643;49.052;8.518;2022-08-23T01:36:27;4.95;;;2.83;;
37341;SDS011;58643;49.052;8.518;2022-08-23T01:38:55;5.68;;;3.20;;
37341;SDS011;58643;49.052;8.518;2022-08-23T01:41:21;5.10;;;3.30;;
37341;SDS011;58643;49.052;8.518;2022-08-23T01:43:47;5.53;;;3.10;;
37341;SDS011;58643;49.052;8.518;2022-08-23T01:46:18;7.22;;;3.13;;
37341;SDS011;58643;49.052;8.518;2022-08-23T01:48:45;5.10;;;3.20;;
37341;SDS011;58643;49.052;8.518;2022-08-23T01:51:13;5.20;;;3.10;;
37341;SDS011;58643;49.052;8.518;2022-08-23T01:53:40;5.35;;;2.80;;
37341;SDS011;58643;49.052;8.518;2022-08-23T01:56:06;7.35;;;2.80;;
37341;SDS011;58643;49.052;8.518;2022-08-23T01:58:33;7.70;;;3.25;;
37341;SDS011;58643;49.052;8.518;2022-08-23T02:00:59;6.80;;;3.03;;
37341;SDS011;58643;49.052;8.518;2022-08-23T02:03:26;6.32;;;2.92;;
37341;SDS011;58643;49.052;8.518;2022-08-23T02:05:53;5.60;;;2.90;;
37341;SDS011;58643;49.052;8.518;2022-08-23T02:08:19;5.18;;;3.17;;
37341;SDS011;58643;49.052;8.518;2022-08-23T02:11:08;5.53;;;3.05;;
37341;SDS011;58643;49.052;8.518;2022-08-23T02:13:35;8.88;;;2.83;;
37341;SDS011;58643;49.052;8.518;2022-08-23T02:16:01;7.38;;;3.33;;
37341;SDS011;58643;49.052;8.518;2022-08-23T02:18:28;9.40;;;3.10;;
37341;SDS011;58643;49.052;8.518;2022-08-23T02:20:54;6.25;;;3.10;;
37341;SDS011;58643;49.052;8.518;2022-08-23T02:23:20;6.30;;;3.17;;
37341;SDS011;58643;49.052;8.518;2022-08-23T02:25:46;7.90;;;3.30;;
37341;SDS011;58643;49.052;8.518;2022-08-23T02:28:11;6.78;;;3.20;;
37341;SDS011;58643;49.052;8.518;2022-08-23T02:30:37;6.88;;;3.42;;
37341;SDS011;58643;49.052;8.518;2022-08-23T02:33:04;7.30;;;3.05;;
37341;SDS011;58643;49.052;8.518;2022-08-23T02:35:30;5.68;;;2.97;;
37341;SDS011;58643;49.052;8.518;2022-08-23T02:37:57;6.18;;;3.03;;
37341;SDS011;58643;49.052;8.518;2022-08-23T02:40:27;4.53;;;3.10;;
37341;SDS011;58643;49.052;8.518;2022-08-23T02:42:53;8.73;;;3.40;;
37341;SDS011;58643;49.052;8.518;2022-08-23T02:45:19;5.93;;;3.10;;
37341;SDS011;58643;49.052;8.518;2022-08-23T02:47:45;7.63;;;3.15;;
37341;SDS011;58643;49.052;8.518;2022-08-23T02:50:12;6.60;;;3.38;;
37341;SDS011;58643;49.052;8.518;2022-08-23T02:52:37;4.43;;;2.92;;
37341;SDS011;58643;49.052;8.518;2022-08-23T02:55:03;5.13;;;3.30;;
37341;SDS011;58643;49.052;8.518;2022-08-23T02:57:30;5.88;;;3.22;;
37341;SDS011;58643;49.052;8.518;2022-08-23T02:59:55;7.40;;;2.83;;
37341;SDS011;58643;49.052;8.518;2022-08-23T03:02:22;4.53;;;2.97;;
37341;SDS011;58643;49.052;8.518;2022-08-23T03:04:47;6.95;;;3.10;;
37341;SDS011;58643;49.052;8.518;2022-08-23T03:07:13;5.45;;;2.80;;
37341;SDS011;58643;49.052;8.518;2022-08-23T03:09:39;5.68;;;2.97;;
37341;SDS011;58643;49.052;8.518;2022-08-23T03:12:04;5.82;;;3.08;;
37341;SDS011;58643;49.052;8.518;2022-08-23T03:14:30;8.57;;;3.30;;
37341;SDS011;58643;49.052;8.518;2022-08-23T03:16:56;5.28;;;3.08;;
37341;SDS011;58643;49.052;8.518;2022-08-23T03:19:21;6.63;;;2.80;;
37341;SDS011;58643;49.052;8.518;2022-08-23T03:21:48;6.65;;;3.60;;
37341;SDS011;58643;49.052;8.518;2022-08-23T03:24:14;7.38;;;3.17;;
37341;SDS011;58643;49.052;8.518;2022-08-23T03:26:40;6.43;;;3.10;;
37341;SDS011;58643;49.052;8.518;2022-08-23T03:29:07;4.45;;;2.75;;
37341;SDS011;58643;49.052;8.518;2022-08-23T03:31:33;9.30;;;3.28;;
37341;SDS011;58643;49.052;8.518;2022-08-23T03:33:59;7.57;;;3.22;;
37341;SDS011;58643;49.052;8.518;2022-08-23T03:36:24;5.45;;;3.17;;
37341;SDS011;58643;49.052;8.518;2022-08-23T03:38:50;8.57;;;3.50;;
37341;SDS011;58643;49.052;8.518;2022-08-23T03:41:16;6.55;;;3.05;;
37341;SDS011;58643;49.052;8.518;2022-08-23T03:43:42;7.85;;;3.05;;
37341;SDS011;58643;49.052;8.518;2022-08-23T03:46:07;5.97;;;3.28;;
37341;SDS011;58643;49.052;8.518;2022-08-23T03:48:33;5.28;;;3.00;;
37341;SDS011;58643;49.052;8.518;2022-08-23T03:50:59;7.45;;;3.60;;
37341;SDS011;58643;49.052;8.518;2022-08-23T03:53:25;6.55;;;3.20;;
37341;SDS011;58643;49.052;8.518;2022-08-23T03:55:51;6.90;;;3.05;;
37341;SDS011;58643;49.052;8.518;2022-08-23T03:58:19;8.25;;;3.30;;
37341;SDS011;58643;49.052;8.518;2022-08-23T04:00:45;8.23;;;3.28;;
37341;SDS011;58643;49.052;8.518;2022-08-23T04:03:11;8.30;;;4.00;;
37341;SDS011;58643;49.052;8.518;2022-08-23T04:05:36;6.80;;;3.22;;
37341;SDS011;58643;49.052;8.518;2022-08-23T04:08:06;6.95;;;3.20;;
37341;SDS011;58643;49.052;8.518;2022-08-23T04:10:33;6.07;;;3.28;;
37341;SDS011;58643;49.052;8.518;2022-08-23T04:12:59;7.30;;;3.10;;
37341;SDS011;58643;49.052;8.518;2022-08-23T04:15:25;5.57;;;3.08;;
37341;SDS011;58643;49.052;8.518;2022-08-23T04:17:51;7.93;;;4.15;;
37341;SDS011;58643;49.052;8.518;2022-08-23T04:20:16;7.57;;;3.50;;
37341;SDS011;58643;49.052;8.518;2022-08-23T04:22:42;9.10;;;3.17;;
37341;SDS011;58643;49.052;8.518;2022-08-23T04:25:08;10.60;;;3.55;;
37341;SDS011;58643;49.052;8.518;2022-08-23T04:27:34;5.15;;;3.22;;
37341;SDS011;58643;49.052;8.518;2022-08-23T04:30:00;4.80;;;3.38;;
37341;SDS011;58643;49.052;8.518;2022-08-23T04:32:26;9.32;;;3.67;;
37341;SDS011;58643;49.052;8.518;2022-08-23T04:34:51;6.75;;;3.25;;
37341;SDS011;58643;49.052;8.518;2022-08-23T04:37:17;6.05;;;3.20;;
37341;SDS011;58643;49.052;8.518;2022-08-23T04:39:43;5.78;;;2.97;;
37341;SDS011;58643;49.052;8.518;2022-08-23T04:42:27;4.75;;;3.35;;
37341;SDS011;58643;49.052;8.518;2022-08-23T04:44:53;5.57;;;3.08;;
37341;SDS011;58643;49.052;8.518;2022-08-23T04:47:19;8.70;;;3.55;;
37341;SDS011;58643;49.052;8.518;2022-08-23T04:49:45;5.55;;;3.47;;
37341;SDS011;58643;49.052;8.518;2022-08-23T04:52:11;4.35;;;3.17;;
37341;SDS011;58643;49.052;8.518;2022-08-23T04:54:37;6.72;;;3.65;;
37341;SDS011;58643;49.052;8.518;2022-08-23T04:57:03;6.55;;;3.38;;
37341;SDS011;58643;49.052;8.518;2022-08-23T04:59:29;6.70;;;3.55;;
37341;SDS011;58643;49.052;8.518;2022-08-23T05:01:54;6.15;;;3.67;;
37341;SDS011;58643;49.052;8.518;2022-08-23T05:04:20;6.25;;;3.42;;
37341;SDS011;58643;49.052;8.518;2022-08-23T05:06:45;7.22;;;3.20;;
37341;SDS011;58643;49.052;8.518;2022-08-23T05:09:11;10.90;;;3.28;;
37341;SDS011;58643;49.052;8.518;2022-08-23T05:11:37;7.30;;;3.22;;
37341;SDS011;58643;49.052;8.518;2022-08-23T05:14:03;5.72;;;3.40;;
37341;SDS011;58643;49.052;8.518;2022-08-23T05:16:28;5.28;;;3.10;;
37341;SDS011;58643;49.052;8.518;2022-08-23T05:18:54;8.95;;;3.00;;
37341;SDS011;58643;49.052;8.518;2022-08-23T05:21:21;9.07;;;3.42;;
37341;SDS011;58643;49.052;8.518;2022-08-23T05:23:48;7.78;;;3.22;;
37341;SDS011;58643;49.052;8.518;2022-08-23T05:26:14;6.57;;;3.08;;
37341;SDS011;58643;49.052;8.518;2022-08-23T05:28:43;5.38;;;3.60;;
37341;SDS011;58643;49.052;8.518;2022-08-23T05:31:11;10.73;;;3.40;;
37341;SDS011;58643;49.052;8.518;2022-08-23T05:33:45;6.53;;;3.08;;
37341;SDS011;58643;49.052;8.518;2022-08-23T05:36:11;7.00;;;3.30;;
37341;SDS011;58643;49.052;8.518;2022-08-23T05:38:38;5.65;;;3.10;;
37341;SDS011;58643;49.052;8.518;2022-08-23T05:41:05;8.23;;;3.30;;
37341;SDS011;58643;49.052;8.518;2022-08-23T05:43:31;5.53;;;3.50;;
37341;SDS011;58643;49.052;8.518;2022-08-23T05:46:07;5.60;;;3.28;;
37341;SDS011;58643;49.052;8.518;2022-08-23T05:48:37;6.07;;;3.70;;
37341;SDS011;58643;49.052;8.518;2022-08-23T05:53:48;6.43;;;3.55;;
37341;SDS011;58643;49.052;8.518;2022-08-23T05:56:22;6.47;;;3.50;;
37341;SDS011;58643;49.052;8.518;2022-08-23T05:58:54;7.30;;;3.38;;
37341;SDS011;58643;49.052;8.518;2022-08-23T06:01:22;8.45;;;3.17;;
37341;SDS011;58643;49.052;8.518;2022-08-23T06:03:48;7.22;;;3.40;;
37341;SDS011;58643;49.052;8.518;2022-08-23T06:06:14;6.40;;;3.30;;
37341;SDS011;58643;49.052;8.518;2022-08-23T06:08:41;3.90;;;3.05;;
37341;SDS011;58643;49.052;8.518;2022-08-23T06:13:43;6.32;;;3.60;;
37341;SDS011;58643;49.052;8.518;2022-08-23T06:16:11;7.63;;;3.55;;
37341;SDS011;58643;49.052;8.518;2022-08-23T06:18:39;9.07;;;3.33;;
37341;SDS011;58643;49.052;8.518;2022-08-23T06:21:05;8.02;;;3.60;;
37341;SDS011;58643;49.052;8.518;2022-08-23T06:23:33;7.60;;;3.28;;
37341;SDS011;58643;49.052;8.518;2022-08-23T06:26:00;6.85;;;3.50;;
37341;SDS011;58643;49.052;8.518;2022-08-23T06:28:32;5.15;;;3.30;;
37341;SDS011;58643;49.052;8.518;2022-08-23T06:30:58;6.88;;;3.30;;
37341;SDS011;58643;49.052;8.518;2022-08-23T06:33:27;5.65;;;3.22;;
37341;SDS011;58643;49.052;8.518;2022-08-23T06:36:05;5.65;;;3.13;;
37341;SDS011;58643;49.052;8.518;2022-08-23T06:38:34;9.00;;;3.38;;
37341;SDS011;58643;49.052;8.518;2022-08-23T06:41:05;10.60;;;3.35;;
37341;SDS011;58643;49.052;8.518;2022-08-23T06:43:33;5.45;;;3.08;;
37341;SDS011;58643;49.052;8.518;2022-08-23T06:46:09;5.75;;;2.95;;
37341;SDS011;58643;49.052;8.518;2022-08-23T06:48:36;6.43;;;3.25;;
37341;SDS011;58643;49.052;8.518;2022-08-23T06:51:08;6.70;;;3.10;;
37341;SDS011;58643;49.052;8.518;2022-08-23T06:53:35;8.07;;;2.92;;
37341;SDS011;58643;49.052;8.518;2022-08-23T06:56:01;4.72;;;2.80;;
37341;SDS011;58643;49.052;8.518;2022-08-23T06:58:26;8.30;;;3.15;;
37341;SDS011;58643;49.052;8.518;2022-08-23T07:00:52;5.75;;;3.10;;
37341;SDS011;58643;49.052;8.518;2022-08-23T07:03:17;7.53;;;2.97;;
37341;SDS011;58643;49.052;8.518;2022-08-23T07:05:43;8.18;;;3.08;;
37341;SDS011;58643;49.052;8.518;2022-08-23T07:08:08;7.07;;;2.58;;
37341;SDS011;58643;49.052;8.518;2022-08-23T07:10:34;5.40;;;2.85;;
37341;SDS011;58643;49.052;8.518;2022-08-23T07:13:01;8.93;;;3.03;;
37341;SDS011;58643;49.052;8.518;2022-08-23T07:15:27;8.32;;;3.33;;
37341;SDS011;58643;49.052;8.518;2022-08-23T07:17:52;6.30;;;3.22;;
37341;SDS011;58643;49.052;8.518;2022-08-23T07:20:18;6.72;;;3.20;;
37341;SDS011;58643;49.052;8.518;2022-08-23T07:22:44;5.88;;;3.33;;
37341;SDS011;58643;49.052;8.518;2022-08-23T07:25:09;6.95;;;3.00;;
37341;SDS011;58643;49.052;8.518;2022-08-23T07:27:35;6.13;;;3.08;;
37341;SDS011;58643;49.052;8.518;2022-08-23T07:30:02;8.57;;;2.80;;
37341;SDS011;58643;49.052;8.518;2022-08-23T07:32:29;6.40;;;3.47;;
37341;SDS011;58643;49.052;8.518;2022-08-23T07:34:54;4.05;;;2.83;;
37341;SDS011;58643;49.052;8.518;2022-08-23T07:37:20;6.68;;;2.85;;
37341;SDS011;58643;49.052;8.518;2022-08-23T07:39:46;8.20;;;3.60;;
37341;SDS011;58643;49.052;8.518;2022-08-23T07:42:12;6.68;;;2.95;;
37341;SDS011;58643;49.052;8.518;2022-08-23T07:44:37;5.78;;;3.05;;
37341;SDS011;58643;49.052;8.518;2022-08-23T07:47:03;6.30;;;3.47;;
37341;SDS011;58643;49.052;8.518;2022-08-23T07:49:29;8.18;;;3.05;;
37341;SDS011;58643;49.052;8.518;2022-08-23T07:51:54;4.95;;;2.58;;
37341;SDS011;58643;49.052;8.518;2022-08-23T07:54:22;8.60;;;2.80;;
37341;SDS011;58643;49.052;8.518;2022-08-23T07:56:49;9.13;;;3.08;;
37341;SDS011;58643;49.052;8.518;2022-08-23T07:59:15;7.00;;;3.03;;
37341;SDS011;58643;49.052;8.518;2022-08-23T08:01:41;9.77;;;3.03;;
37341;SDS011;58643;49.052;8.518;2022-08-23T08:04:08;8.77;;;2.67;;
37341;SDS011;58643;49.052;8.518;2022-08-23T08:06:38;5.68;;;2.42;;
37341;SDS011;58643;49.052;8.518;2022-08-23T08:09:06;9.02;;;2.58;;
37341;SDS011;58643;49.052;8.518;2022-08-23T08:11:33;7.50;;;2.83;;
37341;SDS011;58643;49.052;8.518;2022-08-23T08:13:59;9.23;;;2.67;;
37341;SDS011;58643;49.052;8.518;2022-08-23T08:16:30;7.45;;;2.42;;
37341;SDS011;58643;49.052;8.518;2022-08-23T08:18:59;7.55;;;2.72;;
37341;SDS011;58643;49.052;8.518;2022-08-23T08:21:27;5.85;;;2.15;;
37341;SDS011;58643;49.052;8.518;2022-08-23T08:23:53;9.50;;;2.90;;
37341;SDS011;58643;49.052;8.518;2022-08-23T08:26:20;7.75;;;2.70;;
37341;SDS011;58643;49.052;8.518;2022-08-23T08:28:46;6.30;;;2.58;;
37341;SDS011;58643;49.052;8.518;2022-08-23T08:31:12;6.43;;;2.58;;
37341;SDS011;58643;49.052;8.518;2022-08-23T08:33:38;6.97;;;2.35;;
37341;SDS011;58643;49.052;8.518;2022-08-23T08:36:04;6.80;;;2.90;;
37341;SDS011;58643;49.052;8.518;2022-08-23T08:38:31;9.27;;;3.08;;
37341;SDS011;58643;49.052;8.518;2022-08-23T08:40:59;4.65;;;2.25;;
37341;SDS011;58643;49.052;8.518;2022-08-23T08:46:27;5.03;;;2.60;;
37341;SDS011;58643;49.052;8.518;2022-08-23T08:49:16;9.15;;;2.50;;
37341;SDS011;58643;49.052;8.518;2022-08-23T08:51:58;10.82;;;2.80;;
37341;SDS011;58643;49.052;8.518;2022-08-23T08:54:39;4.22;;;2.30;;
37341;SDS011;58643;49.052;8.518;2022-08-23T08:57:06;9.23;;;2.67;;
37341;SDS011;58643;49.052;8.518;2022-08-23T08:59:41;6.55;;;2.85;;
37341;SDS011;58643;49.052;8.518;2022-08-23T09:02:14;5.38;;;2.35;;
37341;SDS011;58643;49.052;8.518;2022-08-23T09:04:42;6.25;;;2.67;;
37341;SDS011;58643;49.052;8.518;2022-08-23T09:07:29;6.15;;;2.85;;
37341;SDS011;58643;49.052;8.518;2022-08-23T09:16:13;11.10;;;3.55;;
37341;SDS011;58643;49.052;8.518;2022-08-23T09:18:44;9.07;;;2.58;;
37341;SDS011;58643;49.052;8.518;2022-08-23T09:21:11;8.35;;;2.40;;
37341;SDS011;58643;49.052;8.518;2022-08-23T09:23:43;9.80;;;2.63;;
37341;SDS011;58643;49.052;8.518;2022-08-23T09:26:18;5.10;;;2.35;;
37341;SDS011;58643;49.052;8.518;2022-08-23T09:28:48;5.43;;;2.40;;
37341;SDS011;58643;49.052;8.518;2022-08-23T09:37:04;6.15;;;3.08;;
37341;SDS011;58643;49.052;8.518;2022-08-23T09:39:35;7.03;;;2.30;;
37341;SDS011;58643;49.052;8.518;2022-08-23T09:42:03;8.55;;;3.05;;
37341;SDS011;58643;49.052;8.518;2022-08-23T09:44:48;10.45;;;2.53;;
37341;SDS011;58643;49.052;8.518;2022-08-23T09:47:15;7.70;;;2.85;;
37341;SDS011;58643;49.052;8.518;2022-08-23T09:49:42;12.30;;;2.90;;
37341;SDS011;58643;49.052;8.518;2022-08-23T09:54:44;5.70;;;2.63;;
37341;SDS011;58643;49.052;8.518;2022-08-23T09:57:30;10.65;;;2.42;;
37341;SDS011;58643;49.052;8.518;2022-08-23T10:05:49;5.28;;;2.35;;
37341;SDS011;58643;49.052;8.518;2022-08-23T10:08:21;4.75;;;2.53;;
37341;SDS011;58643;49.052;8.518;2022-08-23T10:10:52;4.53;;;2.20;;
37341;SDS011;58643;49.052;8.518;2022-08-23T10:13:22;5.65;;;2.80;;
37341;SDS011;58643;49.052;8.518;2022-08-23T10:15:53;6.40;;;2.55;;
37341;SDS011;58643;49.052;8.518;2022-08-23T10:24:25;4.63;;;2.42;;
37341;SDS011;58643;49.052;8.518;2022-08-23T10:27:14;5.50;;;2.47;;
37341;SDS011;58643;49.052;8.518;2022-08-23T10:30:14;7.43;;;2.67;;
37341;SDS011;58643;49.052;8.518;2022-08-23T10:40:59;6.53;;;2.60;;
37341;SDS011;58643;49.052;8.518;2022-08-23T10:46:11;5.97;;;2.20;;
37341;SDS011;58643;49.052;8.518;2022-08-23T10:51:17;6.20;;;2.45;;
37341;SDS011;58643;49.052;8.518;2022-08-23T10:53:50;7.30;;;2.50;;
37341;SDS011;58643;49.052;8.518;2022-08-23T10:56:26;5.90;;;2.50;;
37341;SDS011;58643;49.052;8.518;2022-08-23T11:06:59;5.22;;;2.50;;
37341;SDS011;58643;49.052;8.518;2022-08-23T11:09:46;8.73;;;2.58;;
37341;SDS011;58643;49.052;8.518;2022-08-23T11:12:16;5.20;;;2.55;;
37341;SDS011;58643;49.052;8.518;2022-08-23T11:14:46;6.95;;;2.38;;
37341;SDS011;58643;49.052;8.518;2022-08-23T11:17:41;5.43;;;2.15;;
37341;SDS011;58643;49.052;8.518;2022-08-23T11:20:34;7.38;;;2.50;;
37341;SDS011;58643;49.052;8.518;2022-08-23T11:26:07;11.77;;;2.60;;
37341;SDS011;58643;49.052;8.518;2022-08-23T11:34:27;4.97;;;1.90;;
37341;SDS011;58643;49.052;8.518;2022-08-23T11:42:24;6.57;;;2.00;;
37341;SDS011;58643;49.052;8.518;2022-08-23T11:44:53;5.18;;;2.08;;
37341;SDS011;58643;49.052;8.518;2022-08-23T11:47:37;6.93;;;2.10;;
37341;SDS011;58643;49.052;8.518;2022-08-23T11:50:09;5.88;;;2.30;;
37341;SDS011;58643;49.052;8.518;2022-08-23T11:53:02;4.85;;;1.70;;
37341;SDS011;58643;49.052;8.518;2022-08-23T11:59:01;3.08;;;1.63;;
37341;SDS011;58643;49.052;8.518;2022-08-23T12:01:32;7.20;;;2.60;;
37341;SDS011;58643;49.052;8.518;2022-08-23T12:04:01;5.03;;;2.00;;
37341;SDS011;58643;49.052;8.518;2022-08-23T12:09:46;4.85;;;2.00;;
37341;SDS011;58643;49.052;8.518;2022-08-23T12:16:58;5.20;;;1.95;;
37341;SDS011;58643;49.052;8.518;2022-08-23T12:19:53;2.00;;;1.48;;
37341;SDS011;58643;49.052;8.518;2022-08-23T12:22:30;7.65;;;1.77;;
37341;SDS011;58643;49.052;8.518;2022-08-23T12:25:17;3.33;;;1.77;;
37341;SDS011;58643;49.052;8.518;2022-08-23T12:27:45;6.97;;;2.17;;
37341;SDS011;58643;49.052;8.518;2022-08-23T12:30:17;3.45;;;1.80;;
37341;SDS011;58643;49.052;8.518;2022-08-23T12:41:31;2.70;;;1.73;;
37341;SDS011;58643;49.052;8.518;2022-08-23T12:43:59;5.03;;;1.83;;
37341;SDS011;58643;49.052;8.518;2022-08-23T12:49:05;2.75;;;1.58;;
37341;SDS011;58643;49.052;8.518;2022-08-23T12:51:38;7.10;;;1.87;;
37341;SDS011;58643;49.052;8.518;2022-08-23T12:54:13;5.05;;;1.67;;
37341;SDS011;58643;49.052;8.518;2022-08-23T12:56:43;4.63;;;1.75;;
37341;SDS011;58643;49.052;8.518;2022-08-23T12:59:16;4.45;;;1.90;;
37341;SDS011;58643;49.052;8.518;2022-08-23T13:01:56;5.55;;;1.80;;
37341;SDS011;58643;49.052;8.518;2022-08-23T13:04:22;5.82;;;1.75;;
37341;SDS011;58643;49.052;8.518;2022-08-23T13:06:54;2.22;;;1.50;;
37341;SDS011;58643;49.052;8.518;2022-08-23T13:09:26;4.18;;;1.85;;
37341;SDS011;58643;49.052;8.518;2022-08-23T13:11:56;4.53;;;1.60;;
37341;SDS011;58643;49.052;8.518;2022-08-23T13:14:45;3.15;;;1.70;;
37341;SDS011;58643;49.052;8.518;2022-08-23T13:22:31;3.95;;;1.80;;
37341;SDS011;58643;49.052;8.518;2022-08-23T13:27:28;5.72;;;1.80;;
37341;SDS011;58643;49.052;8.518;2022-08-23T13:30:02;3.92;;;1.50;;
37341;SDS011;58643;49.052;8.518;2022-08-23T13:32:50;4.65;;;1.60;;
37341;SDS011;58643;49.052;8.518;2022-08-23T13:35:43;3.42;;;1.60;;
37341;SDS011;58643;49.052;8.518;2022-08-23T13:46:16;6.45;;;2.00;;
37341;SDS011;58643;49.052;8.518;2022-08-23T13:48:46;3.05;;;1.40;;
37341;SDS011;58643;49.052;8.518;2022-08-23T13:51:16;2.25;;;1.60;;
37341;SDS011;58643;49.052;8.518;2022-08-23T13:53:54;4.57;;;1.60;;
37341;SDS011;58643;49.052;8.518;2022-08-23T13:56:21;4.22;;;1.50;;
37341;SDS011;58643;49.052;8.518;2022-08-23T13:58:53;6.63;;;1.50;;
37341;SDS011;58643;49.052;8.518;2022-08-23T14:01:21;2.58;;;1.48;;
37341;SDS011;58643;49.052;8.518;2022-08-23T14:03:47;8.32;;;2.20;;
37341;SDS011;58643;49.052;8.518;2022-08-23T14:06:13;4.18;;;1.50;;
37341;SDS011;58643;49.052;8.518;2022-08-23T14:08:38;4.07;;;1.45;;
37341;SDS011;58643;49.052;8.518;2022-08-23T14:11:04;3.00;;;1.60;;
37341;SDS011;58643;49.052;8.518;2022-08-23T14:13:30;3.75;;;1.65;;
37341;SDS011;58643;49.052;8.518;2022-08-23T14:16:01;6.22;;;1.75;;
37341;SDS011;58643;49.052;8.518;2022-08-23T14:18:29;3.30;;;1.90;;
37341;SDS011;58643;49.052;8.518;2022-08-23T14:20:55;3.50;;;1.80;;
37341;SDS011;58643;49.052;8.518;2022-08-23T14:23:21;3.35;;;1.30;;
37341;SDS011;58643;49.052;8.518;2022-08-23T14:25:47;3.08;;;1.42;;
37341;SDS011;58643;49.052;8.518;2022-08-23T14:28:16;5.00;;;1.67;;
37341;SDS011;58643;49.052;8.518;2022-08-23T14:30:42;3.55;;;1.50;;
37341;SDS011;58643;49.052;8.518;2022-08-23T14:33:08;3.95;;;1.70;;
37341;SDS011;58643;49.052;8.518;2022-08-23T14:35:34;2.90;;;1.38;;
37341;SDS011;58643;49.052;8.518;2022-08-23T14:37:59;4.60;;;1.70;;
37341;SDS011;58643;49.052;8.518;2022-08-23T14:40:25;2.35;;;1.50;;
37341;SDS011;58643;49.052;8.518;2022-08-23T14:42:51;4.43;;;1.88;;
37341;SDS011;58643;49.052;8.518;2022-08-23T14:45:17;2.05;;;1.38;;
37341;SDS011;58643;49.052;8.518;2022-08-23T14:47:43;2.95;;;1.50;;
37341;SDS011;58643;49.052;8.518;2022-08-23T14:50:09;4.03;;;1.48;;
37341;SDS011;58643;49.052;8.518;2022-08-23T14:55:04;4.00;;;1.70;;
37341;SDS011;58643;49.052;8.518;2022-08-23T14:57:31;3.67;;;1.40;;
37341;SDS011;58643;49.052;8.518;2022-08-23T14:59:56;4.80;;;1.73;;
37341;SDS011;58643;49.052;8.518;2022-08-23T15:02:23;5.60;;;1.65;;
37341;SDS011;58643;49.052;8.518;2022-08-23T15:04:53;6.18;;;1.63;;
37341;SDS011;58643;49.052;8.518;2022-08-23T15:07:19;4.18;;;1.75;;
37341;SDS011;58643;49.052;8.518;2022-08-23T15:09:46;3.63;;;1.50;;
37341;SDS011;58643;49.052;8.518;2022-08-23T15:12:13;5.50;;;1.67;;
37341;SDS011;58643;49.052;8.518;2022-08-23T15:14:39;5.00;;;1.75;;
37341;SDS011;58643;49.052;8.518;2022-08-23T15:17:04;4.60;;;1.45;;
37341;SDS011;58643;49.052;8.518;2022-08-23T15:19:31;4.65;;;1.40;;
37341;SDS011;58643;49.052;8.518;2022-08-23T15:21:57;6.53;;;1.50;;
37341;SDS011;58643;49.052;8.518;2022-08-23T15:24:23;2.95;;;1.40;;
37341;SDS011;58643;49.052;8.518;2022-08-23T15:26:49;4.90;;;1.50;;
37341;SDS011;58643;49.052;8.518;2022-08-23T15:29:15;4.80;;;1.60;;
37341;SDS011;58643;49.052;8.518;2022-08-23T15:31:40;3.45;;;1.40;;
37341;SDS011;58643;49.052;8.518;2022-08-23T15:34:06;2.75;;;1.50;;
37341;SDS011;58643;49.052;8.518;2022-08-23T15:36:33;4.72;;;1.50;;
37341;SDS011;58643;49.052;8.518;2022-08-23T15:39:03;3.28;;;1.30;;
37341;SDS011;58643;49.052;8.518;2022-08-23T15:41:29;4.05;;;1.42;;
37341;SDS011;58643;49.052;8.518;2022-08-23T15:43:55;4.32;;;1.60;;
37341;SDS011;58643;49.052;8.518;2022-08-23T15:46:21;3.63;;;1.58;;
37341;SDS011;58643;49.052;8.518;2022-08-23T15:48:49;2.75;;;1.23;;
37341;SDS011;58643;49.052;8.518;2022-08-23T15:51:37;3.53;;;1.60;;
37341;SDS011;58643;49.052;8.518;2022-08-23T15:54:03;4.80;;;1.40;;
37341;SDS011;58643;49.052;8.518;2022-08-23T15:56:31;5.50;;;1.60;;
37341;SDS011;58643;49.052;8.518;2022-08-23T15:59:09;8.90;;;1.40;;
37341;SDS011;58643;49.052;8.518;2022-08-23T16:01:36;2.92;;;1.40;;
37341;SDS011;58643;49.052;8.518;2022-08-23T16:04:02;3.17;;;1.50;;
37341;SDS011;58643;49.052;8.518;2022-08-23T16:06:28;4.05;;;1.48;;
37341;SDS011;58643;49.052;8.518;2022-08-23T16:08:54;5.82;;;1.45;;
37341;SDS011;58643;49.052;8.518;2022-08-23T16:11:20;5.22;;;1.50;;
37341;SDS011;58643;49.052;8.518;2022-08-23T16:13:46;2.70;;;1.23;;
37341;SDS011;58643;49.052;8.518;2022-08-23T16:16:19;4.78;;;1.50;;
37341;SDS011;58643;49.052;8.518;2022-08-23T16:18:48;2.28;;;1.23;;
37341;SDS011;58643;49.052;8.518;2022-08-23T16:21:15;2.95;;;1.23;;
37341;SDS011;58643;49.052;8.518;2022-08-23T16:23:41;3.67;;;1.50;;
37341;SDS011;58643;49.052;8.518;2022-08-23T16:26:09;4.18;;;1.45;;
37341;SDS011;58643;49.052;8.518;2022-08-23T16:28:39;6.30;;;1.38;;
37341;SDS011;58643;49.052;8.518;2022-08-23T16:31:05;5.03;;;1.35;;
37341;SDS011;58643;49.052;8.518;2022-08-23T16:33:30;2.97;;;1.30;;
37341;SDS011;58643;49.052;8.518;2022-08-23T16:35:56;4.22;;;1.33;;
37341;SDS011;58643;49.052;8.518;2022-08-23T16:38:22;3.45;;;1.30;;
37341;SDS011;58643;49.052;8.518;2022-08-23T16:40:47;4.03;;;1.60;;
37341;SDS011;58643;49.052;8.518;2022-08-23T16:43:13;3.53;;;1.10;;
37341;SDS011;58643;49.052;8.518;2022-08-23T16:45:38;3.25;;;1.40;;
37341;SDS011;58643;49.052;8.518;2022-08-23T16:48:04;3.83;;;1.30;;
37341;SDS011;58643;49.052;8.518;2022-08-23T16:50:30;3.42;;;1.20;;
37341;SDS011;58643;49.052;8.518;2022-08-23T16:52:56;3.35;;;1.70;;
37341;SDS011;58643;49.052;8.518;2022-08-23T16:55:23;6.10;;;1.48;;